createdAt,value
2023-05-08T00:01:06.305Z,8.80
2023-05-08T00:03:32.884Z,8.40
2023-05-08T00:05:59.449Z,7.82
2023-05-08T00:08:26.400Z,7.87
2023-05-08T00:10:55.350Z,7.25
2023-05-08T00:13:21.839Z,7.55
2023-05-08T00:18:35.526Z,8.00
2023-05-08T00:21:06.122Z,7.47
2023-05-08T00:23:33.423Z,7.85
2023-05-08T00:26:05.973Z,8.18
2023-05-08T00:28:32.360Z,7.65
2023-05-08T00:31:07.400Z,7.93
2023-05-08T00:33:33.801Z,7.67
2023-05-08T00:36:05.215Z,7.97
2023-05-08T00:38:35.447Z,7.75
2023-05-08T00:43:45.602Z,7.93
2023-05-08T00:46:12.966Z,7.60
2023-05-08T00:48:47.142Z,6.78
2023-05-08T00:51:15.010Z,6.65
2023-05-08T00:53:44.478Z,8.18
2023-05-08T00:56:17.210Z,7.10
2023-05-08T00:58:48.045Z,7.03
2023-05-08T01:01:16.654Z,6.85
2023-05-08T01:03:47.605Z,6.90
2023-05-08T01:06:14.054Z,8.20
2023-05-08T01:08:44.781Z,7.47
2023-05-08T01:11:37.065Z,7.97
2023-05-08T01:14:34.356Z,6.93
2023-05-08T01:17:38.237Z,6.95
2023-05-08T01:20:32.489Z,8.60
2023-05-08T01:23:42.753Z,7.18
2023-05-08T01:32:27.663Z,17.95
2023-05-08T01:35:09.366Z,6.07
2023-05-08T01:37:52.322Z,6.00
2023-05-08T01:40:30.190Z,5.80
2023-05-08T01:43:34.312Z,5.70
2023-05-08T01:46:30.221Z,5.18
2023-05-08T01:49:27.741Z,6.50
2023-05-08T01:52:05.424Z,6.07
2023-05-08T01:54:39.362Z,5.73
2023-05-08T01:57:27.371Z,5.55
2023-05-08T02:00:00.407Z,5.97
2023-05-08T02:02:34.781Z,6.03
2023-05-08T02:05:06.709Z,6.28
2023-05-08T02:07:38.789Z,5.73
2023-05-08T02:10:06.350Z,6.07
2023-05-08T02:12:41.552Z,8.43
2023-05-08T02:15:09.743Z,6.90
2023-05-08T02:17:54.758Z,7.40
2023-05-08T02:20:23.813Z,6.70
2023-05-08T02:22:53.567Z,7.60
2023-05-08T02:25:24.505Z,7.47
2023-05-08T02:27:56.490Z,14.40
2023-05-08T02:30:31.742Z,13.82
2023-05-08T02:33:00.824Z,17.13
2023-05-08T02:35:30.729Z,17.63
2023-05-08T02:38:00.665Z,12.05
2023-05-08T02:40:31.357Z,11.05
2023-05-08T02:42:57.786Z,12.98
2023-05-08T02:45:39.381Z,9.37
2023-05-08T02:51:20.435Z,12.88
2023-05-08T02:54:24.515Z,17.88
2023-05-08T02:57:00.138Z,25.13
2023-05-08T02:59:34.649Z,35.23
2023-05-08T03:02:23.383Z,34.72
2023-05-08T03:04:55.594Z,25.23
2023-05-08T03:07:27.790Z,30.08
2023-05-08T03:10:01.508Z,12.10
2023-05-08T03:15:17.120Z,14.38
2023-05-08T03:17:46.783Z,7.18
2023-05-08T03:20:19.626Z,12.82
2023-05-08T03:22:48.230Z,15.95
2023-05-08T03:25:20.785Z,8.47
2023-05-08T03:27:51.973Z,11.70
2023-05-08T03:30:23.325Z,12.70
2023-05-08T03:32:54.198Z,4.90
2023-05-08T03:35:26.592Z,13.57
2023-05-08T03:37:56.130Z,4.83
2023-05-08T03:40:22.587Z,5.53
2023-05-08T03:43:00.966Z,7.07
2023-05-08T03:45:29.473Z,7.47
2023-05-08T03:47:58.910Z,5.15
2023-05-08T03:50:25.650Z,6.53
2023-05-08T03:52:58.158Z,6.93
2023-05-08T03:55:24.726Z,5.70
2023-05-08T03:57:59.604Z,16.30
2023-05-08T04:00:50.657Z,8.65
2023-05-08T04:04:09.473Z,6.27
2023-05-08T04:06:56.874Z,5.30
2023-05-08T04:09:35.893Z,4.72
2023-05-08T04:12:14.874Z,5.70
2023-05-08T04:15:01.313Z,7.57
2023-05-08T04:17:52.851Z,5.80
2023-05-08T04:20:25.925Z,5.25
2023-05-08T04:22:55.879Z,5.40
2023-05-08T04:25:22.743Z,5.53
2023-05-08T04:27:57.623Z,5.38
2023-05-08T04:30:27.192Z,4.93
2023-05-08T04:35:37.932Z,4.97
2023-05-08T04:38:04.318Z,5.00
2023-05-08T04:40:30.685Z,6.00
2023-05-08T04:42:57.312Z,5.50
2023-05-08T04:45:26.734Z,6.10
2023-05-08T04:47:56.149Z,6.30
2023-05-08T04:50:22.565Z,15.30
2023-05-08T04:52:52.912Z,24.52
2023-05-08T04:55:19.383Z,7.67
2023-05-08T04:57:45.793Z,14.38
2023-05-08T05:00:16.495Z,13.63
2023-05-08T05:02:42.915Z,6.78
2023-05-08T05:05:09.408Z,5.78
2023-05-08T05:07:36.261Z,5.60
2023-05-08T05:10:02.943Z,6.60
2023-05-08T05:12:33.122Z,5.35
2023-05-08T05:15:02.448Z,5.35
2023-05-08T05:17:33.321Z,5.07
2023-05-08T05:20:02.162Z,4.70
2023-05-08T05:22:29.601Z,4.68
2023-05-08T05:24:56.336Z,5.00
2023-05-08T05:27:22.657Z,4.65
2023-05-08T05:29:51.982Z,4.85
2023-05-08T05:32:21.548Z,5.23
2023-05-08T05:34:48.192Z,5.13
2023-05-08T05:37:17.216Z,5.38
2023-05-08T05:39:46.413Z,5.40
2023-05-08T05:44:59.425Z,5.77
2023-05-08T05:47:28.656Z,6.85
2023-05-08T05:49:55.084Z,6.60
2023-05-08T05:52:33.457Z,8.23
2023-05-08T05:55:02.239Z,8.38
2023-05-08T05:57:34.312Z,7.83
2023-05-08T06:00:01.227Z,8.15
2023-05-08T06:02:27.736Z,8.52
2023-05-08T06:05:02.025Z,8.40
2023-05-08T06:07:33.435Z,8.80
2023-05-08T06:10:02.830Z,9.70
2023-05-08T06:12:31.711Z,9.52
2023-05-08T06:15:03.235Z,9.73
2023-05-08T06:17:29.716Z,10.93
2023-05-08T06:19:58.958Z,11.43
2023-05-08T06:22:29.952Z,10.20
2023-05-08T06:25:04.689Z,10.73
2023-05-08T06:27:31.007Z,11.07
2023-05-08T06:29:57.430Z,11.23
2023-05-08T06:32:26.945Z,11.13
2023-05-08T06:34:56.626Z,11.00
2023-05-08T06:37:25.702Z,11.48
2023-05-08T06:40:03.860Z,11.82
2023-05-08T06:42:41.400Z,11.43
2023-05-08T06:45:17.500Z,11.82
2023-05-08T06:47:47.971Z,11.00
2023-05-08T06:50:17.271Z,11.02
2023-05-08T06:52:46.453Z,10.68
2023-05-08T06:55:13.111Z,11.15
2023-05-08T06:57:48.871Z,11.40
2023-05-08T07:00:15.509Z,13.20
2023-05-08T07:02:41.942Z,11.68
2023-05-08T07:05:16.396Z,11.40
2023-05-08T07:07:45.228Z,11.85
2023-05-08T07:10:19.103Z,12.98
2023-05-08T07:12:45.916Z,11.53
2023-05-08T07:17:59.019Z,13.60
2023-05-08T07:20:25.593Z,13.80
2023-05-08T07:22:57.777Z,14.57
2023-05-08T07:25:24.284Z,14.77
2023-05-08T07:27:50.645Z,14.38
2023-05-08T07:30:20.120Z,14.75
2023-05-08T07:32:49.441Z,15.57
2023-05-08T07:35:16.192Z,15.77
2023-05-08T07:37:52.333Z,15.33
2023-05-08T07:40:19.096Z,15.75
2023-05-08T07:42:48.215Z,15.40
2023-05-08T07:45:17.702Z,16.63
2023-05-08T07:47:58.439Z,16.35
2023-05-08T07:50:26.648Z,16.90
2023-05-08T07:52:54.115Z,19.38
2023-05-08T07:55:23.692Z,16.92
2023-05-08T07:57:53.725Z,17.50
2023-05-08T08:00:22.996Z,17.23
2023-05-08T08:02:49.517Z,17.63
2023-05-08T08:05:41.978Z,19.17
2023-05-08T08:08:08.300Z,16.95
2023-05-08T08:10:34.711Z,17.20
2023-05-08T08:13:07.173Z,26.13
2023-05-08T08:15:37.528Z,17.57
2023-05-08T08:18:05.383Z,17.42
2023-05-08T08:20:34.371Z,19.13
2023-05-08T08:23:00.994Z,18.38
2023-05-08T08:25:33.435Z,18.67
2023-05-08T08:27:59.837Z,17.70
2023-05-08T08:30:26.202Z,18.17
2023-05-08T08:32:52.942Z,17.02
2023-05-08T08:35:27.032Z,19.90
2023-05-08T08:37:53.433Z,17.63
2023-05-08T08:40:25.612Z,18.77
2023-05-08T08:42:52.042Z,16.90
2023-05-08T08:45:28.069Z,18.10
2023-05-08T08:47:56.149Z,17.95
2023-05-08T08:50:27.137Z,16.10
2023-05-08T08:53:18.987Z,17.93
2023-05-08T08:55:55.835Z,16.45
2023-05-08T08:58:51.391Z,16.48
2023-05-08T09:01:19.169Z,16.40
2023-05-08T09:03:53.282Z,15.85
2023-05-08T09:06:22.953Z,17.07
2023-05-08T09:08:51.431Z,17.13
2023-05-08T09:11:18.222Z,16.80
2023-05-08T09:13:44.621Z,16.70
2023-05-08T09:16:11.155Z,15.27
2023-05-08T09:18:41.464Z,15.13
2023-05-08T09:21:09.629Z,16.02
2023-05-08T09:23:36.741Z,15.98
2023-05-08T09:26:05.667Z,15.60
2023-05-08T09:28:34.847Z,15.90
2023-05-08T09:31:03.466Z,15.27
2023-05-08T09:33:30.287Z,15.25
2023-05-08T09:35:57.408Z,14.88
2023-05-08T09:38:41.869Z,14.65
2023-05-08T09:41:18.586Z,14.32
2023-05-08T09:44:02.700Z,14.40
2023-05-08T09:46:30.427Z,14.93
2023-05-08T09:49:05.248Z,14.60
2023-05-08T09:51:34.519Z,15.20
2023-05-08T09:54:18.980Z,14.48
2023-05-08T09:56:48.915Z,14.53
2023-05-08T09:59:34.407Z,15.07
2023-05-08T10:02:12.448Z,15.07
2023-05-08T10:04:38.860Z,15.45
2023-05-08T10:07:14.922Z,17.00
2023-05-08T10:09:57.937Z,16.10
2023-05-08T10:12:24.733Z,16.88
2023-05-08T10:14:56.985Z,17.25
2023-05-08T10:17:35.729Z,15.15
2023-05-08T10:20:09.826Z,17.00
2023-05-08T10:22:42.559Z,20.67
2023-05-08T10:25:18.131Z,20.13
2023-05-08T10:27:58.179Z,22.52
2023-05-08T10:30:29.276Z,21.83
2023-05-08T10:38:30.109Z,34.22
2023-05-08T10:41:08.508Z,38.45
2023-05-08T10:43:36.521Z,39.67
2023-05-08T10:46:11.356Z,37.03
2023-05-08T10:49:07.168Z,40.83
2023-05-08T10:51:53.649Z,40.28
2023-05-08T10:55:06.166Z,41.25
2023-05-08T10:58:24.858Z,45.70
2023-05-08T11:01:00.035Z,47.13
2023-05-08T11:03:32.786Z,38.77
2023-05-08T11:06:02.612Z,40.13
2023-05-08T11:08:30.785Z,41.58
2023-05-08T11:11:04.442Z,45.20
2023-05-08T11:13:34.358Z,43.30
2023-05-08T11:16:03.353Z,44.10
2023-05-08T11:18:45.684Z,46.08
2023-05-08T11:21:20.689Z,46.33
2023-05-08T11:24:11.765Z,48.70
2023-05-08T11:26:40.458Z,46.20
2023-05-08T11:29:20.621Z,46.80
2023-05-08T11:31:53.837Z,47.97
2023-05-08T11:34:42.276Z,49.78
2023-05-08T11:37:19.039Z,48.70
2023-05-08T11:39:46.419Z,49.67
2023-05-08T11:42:28.195Z,53.03
2023-05-08T11:45:13.826Z,54.33
2023-05-08T11:47:50.017Z,45.85
2023-05-08T11:50:17.223Z,49.78
2023-05-08T11:52:46.356Z,49.28
2023-05-08T11:55:18.708Z,50.43
2023-05-08T11:57:49.484Z,48.97
2023-05-08T12:00:18.912Z,47.13
2023-05-08T12:02:52.983Z,50.35
2023-05-08T12:05:34.916Z,45.92
2023-05-08T12:08:01.378Z,46.57
2023-05-08T12:10:27.852Z,54.88
2023-05-08T12:12:57.210Z,49.28
2023-05-08T12:15:26.915Z,44.92
2023-05-08T12:18:08.580Z,46.05
2023-05-08T12:20:35.395Z,43.03
2023-05-08T12:23:04.662Z,45.97
2023-05-08T12:25:31.318Z,40.15
2023-05-08T12:28:02.309Z,42.42
2023-05-08T12:30:31.745Z,44.03
2023-05-08T12:32:58.404Z,35.40
2023-05-08T12:35:50.148Z,35.60
2023-05-08T12:38:19.536Z,34.85
2023-05-08T12:41:09.417Z,38.05
2023-05-08T12:43:43.722Z,37.60
2023-05-08T12:49:07.810Z,40.38
2023-05-08T12:54:16.637Z,33.30
2023-05-08T12:56:47.965Z,33.47
2023-05-08T12:59:14.342Z,31.53
2023-05-08T13:01:43.075Z,35.10
2023-05-08T13:04:12.799Z,32.55
2023-05-08T13:06:39.884Z,31.50
2023-05-08T13:09:09.070Z,31.05
2023-05-08T13:11:35.760Z,31.97
2023-05-08T13:14:02.241Z,33.58
2023-05-08T13:16:32.113Z,30.35
2023-05-08T13:18:59.383Z,30.20
2023-05-08T13:21:27.813Z,27.85
2023-05-08T13:23:57.747Z,26.73
2023-05-08T13:26:25.560Z,28.60
2023-05-08T13:28:53.368Z,29.95
2023-05-08T13:31:21.411Z,28.90
2023-05-08T13:33:47.862Z,27.60
2023-05-08T13:36:14.277Z,29.87
2023-05-08T13:41:26.942Z,26.30
2023-05-08T13:43:53.302Z,28.88
2023-05-08T13:46:19.681Z,29.05
2023-05-08T13:48:54.387Z,36.60
2023-05-08T13:51:20.820Z,29.63
2023-05-08T13:53:49.547Z,24.92
2023-05-08T13:56:18.344Z,32.28
2023-05-08T13:58:44.843Z,29.45
2023-05-08T14:01:25.968Z,31.30
2023-05-08T14:03:57.298Z,32.65
2023-05-08T14:06:26.815Z,30.45
2023-05-08T14:08:55.498Z,27.92
2023-05-08T14:11:23.696Z,27.88
2023-05-08T14:13:50.099Z,33.67
2023-05-08T14:16:16.623Z,29.58
2023-05-08T14:21:27.148Z,26.63
2023-05-08T14:23:54.567Z,32.50
2023-05-08T14:26:21.427Z,30.47
2023-05-08T14:28:50.857Z,32.63
2023-05-08T14:31:20.286Z,29.00
2023-05-08T14:33:46.730Z,28.80
2023-05-08T14:36:16.071Z,25.60
2023-05-08T14:38:42.388Z,22.60
2023-05-08T14:41:08.781Z,33.95
2023-05-08T14:43:40.851Z,29.95
2023-05-08T14:46:07.222Z,29.90
2023-05-08T14:48:33.682Z,26.50
2023-05-08T14:51:00.116Z,23.30
2023-05-08T14:53:26.567Z,27.58
2023-05-08T14:55:59.444Z,27.75
2023-05-08T14:58:36.896Z,23.15
2023-05-08T15:01:07.968Z,27.95
2023-05-08T15:03:37.543Z,27.70
2023-05-08T15:06:04.964Z,25.05
2023-05-08T15:08:32.533Z,26.45
2023-05-08T15:11:02.675Z,24.98
2023-05-08T15:13:32.025Z,28.00
2023-05-08T15:16:06.570Z,25.93
2023-05-08T15:21:26.357Z,27.30
2023-05-08T15:24:03.118Z,27.23
2023-05-08T15:26:29.531Z,27.90
2023-05-08T15:28:55.905Z,27.87
2023-05-08T15:31:22.837Z,30.45
2023-05-08T15:33:51.875Z,27.40
2023-05-08T15:36:18.276Z,26.55
2023-05-08T15:38:47.507Z,29.98
2023-05-08T15:41:17.479Z,29.30
2023-05-08T15:43:52.595Z,26.85
2023-05-08T15:46:21.770Z,27.23
2023-05-08T15:48:55.438Z,27.65
2023-05-08T15:51:24.826Z,27.30
2023-05-08T15:54:13.449Z,27.30
2023-05-08T15:56:45.654Z,25.00
2023-05-08T15:59:12.195Z,23.98
2023-05-08T16:01:48.424Z,26.10
2023-05-08T16:04:15.291Z,28.02
2023-05-08T16:06:54.342Z,27.40
2023-05-08T16:09:25.755Z,27.70
2023-05-08T16:11:55.000Z,26.10
2023-05-08T16:14:21.574Z,34.30
2023-05-08T16:16:49.257Z,31.83
2023-05-08T16:19:18.622Z,29.33
2023-05-08T16:21:51.579Z,33.38
2023-05-08T16:24:20.909Z,26.75
2023-05-08T16:26:47.240Z,30.23
2023-05-08T16:29:14.096Z,29.17
2023-05-08T16:31:40.508Z,29.67
2023-05-08T16:34:10.879Z,31.50
2023-05-08T16:36:46.079Z,31.23
2023-05-08T16:39:12.614Z,32.08
2023-05-08T16:41:53.612Z,33.40
2023-05-08T16:44:20.085Z,36.13
2023-05-08T16:46:48.871Z,41.60
2023-05-08T16:49:15.383Z,39.45
2023-05-08T16:51:41.795Z,42.58
2023-05-08T16:54:12.609Z,49.83
2023-05-08T16:56:38.960Z,51.83
2023-05-08T16:59:06.642Z,55.30
2023-05-08T17:01:36.534Z,59.47
2023-05-08T17:04:02.977Z,62.70
2023-05-08T17:06:29.325Z,61.63
2023-05-08T17:08:59.180Z,64.93
2023-05-08T17:11:28.429Z,60.78
2023-05-08T17:13:55.057Z,66.75
2023-05-08T17:16:24.105Z,70.68
2023-05-08T17:18:50.572Z,72.15
2023-05-08T17:21:16.923Z,71.60
2023-05-08T17:23:49.220Z,68.70
2023-05-08T17:26:15.652Z,73.95
2023-05-08T17:28:42.115Z,71.97
2023-05-08T17:31:17.417Z,77.68
2023-05-08T17:33:43.794Z,77.80
2023-05-08T17:36:14.318Z,75.95
2023-05-08T17:38:45.847Z,77.28
2023-05-08T17:41:13.914Z,76.35
2023-05-08T17:43:40.836Z,71.22
2023-05-08T17:46:11.554Z,76.53
2023-05-08T17:51:23.394Z,73.22
2023-05-08T17:53:53.129Z,73.25
2023-05-08T17:56:25.223Z,71.85
2023-05-08T17:58:55.552Z,72.27
2023-05-08T18:01:29.272Z,69.15
2023-05-08T18:03:55.753Z,70.00
2023-05-08T18:06:22.170Z,68.28
2023-05-08T18:08:57.224Z,68.15
2023-05-08T18:11:25.488Z,66.70
2023-05-08T18:13:56.241Z,63.17
2023-05-08T18:16:22.888Z,70.95
2023-05-08T18:18:49.937Z,64.85
2023-05-08T18:21:16.676Z,63.63
2023-05-08T18:23:50.244Z,59.70
2023-05-08T18:26:17.674Z,60.28
2023-05-08T18:28:53.315Z,59.50
2023-05-08T18:31:22.207Z,68.10
2023-05-08T18:33:51.254Z,61.58
2023-05-08T18:36:17.619Z,55.10
2023-05-08T18:38:44.119Z,61.67
2023-05-08T18:41:11.231Z,59.45
2023-05-08T18:43:37.675Z,59.83
2023-05-08T18:46:13.507Z,50.85
2023-05-08T18:48:43.663Z,53.67
2023-05-08T18:51:11.538Z,54.30
2023-05-08T18:53:38.886Z,56.53
2023-05-08T18:56:05.568Z,51.45
2023-05-08T18:58:32.381Z,49.40
2023-05-08T19:01:02.610Z,54.47
2023-05-08T19:03:29.216Z,43.00
2023-05-08T19:05:55.678Z,44.65
2023-05-08T19:11:13.749Z,47.67
2023-05-08T19:13:40.122Z,40.40
2023-05-08T19:16:06.844Z,43.05
2023-05-08T19:18:35.712Z,38.97
2023-05-08T19:21:02.334Z,42.67
2023-05-08T19:23:31.751Z,43.30
2023-05-08T19:26:00.885Z,38.63
2023-05-08T19:28:27.262Z,38.90
2023-05-08T19:31:02.866Z,39.00
2023-05-08T19:33:29.253Z,36.25
2023-05-08T19:35:56.041Z,38.92
2023-05-08T19:38:22.795Z,39.80
2023-05-08T19:40:57.160Z,43.78
2023-05-08T19:43:29.560Z,39.33
2023-05-08T19:45:56.098Z,42.00
2023-05-08T19:48:23.726Z,37.10
2023-05-08T19:50:52.702Z,40.93
2023-05-08T19:53:21.044Z,38.38
2023-05-08T19:55:51.415Z,39.28
2023-05-08T19:58:20.675Z,36.67
2023-05-08T20:03:16.369Z,36.63
2023-05-08T20:05:42.895Z,38.88
2023-05-08T20:08:09.256Z,39.47
2023-05-08T20:10:41.475Z,36.97
2023-05-08T20:13:07.989Z,37.88
2023-05-08T20:15:34.458Z,41.43
2023-05-08T20:18:04.691Z,39.88
2023-05-08T20:20:31.963Z,48.97
2023-05-08T20:22:58.520Z,45.55
2023-05-08T20:25:25.204Z,47.88
2023-05-08T20:27:54.202Z,44.97
2023-05-08T20:30:22.823Z,48.78
2023-05-08T20:32:50.534Z,44.40
2023-05-08T20:35:22.804Z,39.72
2023-05-08T20:37:51.685Z,39.60
2023-05-08T20:40:18.338Z,38.53
2023-05-08T20:42:48.882Z,44.67
2023-05-08T20:45:20.447Z,35.83
2023-05-08T20:47:47.356Z,42.33
2023-05-08T20:50:23.296Z,37.47
2023-05-08T20:52:49.818Z,40.40
2023-05-08T20:55:16.478Z,37.05
2023-05-08T20:57:52.768Z,37.15
2023-05-08T21:00:21.638Z,33.20
2023-05-08T21:02:49.495Z,36.97
2023-05-08T21:05:16.252Z,37.90
2023-05-08T21:07:42.927Z,34.00
2023-05-08T21:10:22.167Z,38.92
2023-05-08T21:12:48.648Z,32.00
2023-05-08T21:15:22.369Z,39.03
2023-05-08T21:17:52.962Z,32.10
2023-05-08T21:20:20.456Z,35.15
2023-05-08T21:22:50.633Z,37.65
2023-05-08T21:28:00.775Z,34.88
2023-05-08T21:30:29.531Z,35.13
2023-05-08T21:32:56.007Z,36.35
2023-05-08T21:35:25.617Z,39.65
2023-05-08T21:37:54.885Z,33.67
2023-05-08T21:40:21.519Z,39.28
2023-05-08T21:42:56.221Z,36.20
2023-05-08T21:45:22.821Z,35.83
2023-05-08T21:50:32.845Z,34.85
2023-05-08T21:53:06.517Z,37.00
2023-05-08T21:55:38.505Z,33.43
2023-05-08T21:58:07.610Z,37.60
2023-05-08T22:00:34.364Z,36.30
2023-05-08T22:03:03.605Z,32.88
2023-05-08T22:05:30.131Z,36.58
2023-05-08T22:07:56.498Z,38.30
2023-05-08T22:10:33.071Z,39.20
2023-05-08T22:13:01.248Z,33.38
2023-05-08T22:15:31.232Z,39.30
2023-05-08T22:17:58.899Z,38.25
2023-05-08T22:20:25.723Z,37.37
2023-05-08T22:22:55.091Z,39.20
2023-05-08T22:25:21.778Z,35.58
2023-05-08T22:27:48.589Z,39.25
2023-05-08T22:30:18.375Z,37.22
2023-05-08T22:32:58.377Z,40.87
2023-05-08T22:35:30.931Z,41.45
2023-05-08T22:37:59.225Z,38.30
2023-05-08T22:40:28.622Z,42.58
2023-05-08T22:42:55.951Z,41.10
2023-05-08T22:45:23.449Z,38.80
2023-05-08T22:47:57.539Z,42.25
2023-05-08T22:50:26.387Z,36.00
2023-05-08T22:52:53.080Z,45.60
2023-05-08T22:55:23.913Z,41.92
2023-05-08T22:57:50.379Z,38.50
2023-05-08T23:00:16.836Z,41.03
2023-05-08T23:02:43.258Z,41.13
2023-05-08T23:05:09.680Z,44.03
2023-05-08T23:07:39.154Z,41.40
2023-05-08T23:10:08.967Z,40.57
2023-05-08T23:12:39.267Z,37.80
2023-05-08T23:15:09.833Z,39.20
2023-05-08T23:17:36.291Z,43.72
2023-05-08T23:20:08.394Z,39.10
2023-05-08T23:22:38.665Z,41.37
2023-05-08T23:25:09.559Z,40.28
2023-05-08T23:27:38.804Z,44.28
2023-05-08T23:30:11.601Z,42.10
2023-05-08T23:32:41.105Z,39.92
2023-05-08T23:35:10.259Z,38.97
2023-05-08T23:37:37.073Z,44.58
2023-05-08T23:40:03.838Z,38.35
2023-05-08T23:42:30.383Z,40.00
2023-05-08T23:44:59.148Z,44.20
2023-05-08T23:47:28.438Z,41.67
2023-05-08T23:49:54.854Z,41.53
2023-05-08T23:52:30.920Z,41.00
2023-05-08T23:54:57.248Z,39.13
2023-05-08T23:57:32.079Z,41.13
2023-05-08T23:59:58.490Z,42.00
